CheckWX is a tool to help pilots better visualize weather data.  It is not intended as a substitute for an official pre-flight weather briefing.

03:45:34 UTC

KCQX METAR
Chatham Municipal Airport
Chatham, Massachusetts, USA
Current

54 mins ago

KCQX 270252Z AUTO 25004KT 10SM FEW075 BKN110 18/15 A2979 RMK AO2 SLP089 T01780150 56003
Observed
May-27 @ 02:52 UTC
Wind
  • 250° at 4 KTS
Visibility
10 SM
Flight Rules
VFR
Cloud Levels
  • Few at 7,500' AGL
  • Broken at 11,000' AGL
Temperature
18°C / 64°F
Dewpoint
15°C / 59°F
Humidity
83%
Altimeter
29.79" Hg
Pressure
1008.82 hPa
Previous

2 hours ago

KCQX 270152Z AUTO 23006KT 10SM FEW100 20/16 A2980 RMK AO2 SLP091 T02000156
Observed
May-27 @ 01:52 UTC
Wind
  • 230° at 6 KTS
Visibility
10 SM
Flight Rules
VFR
Cloud Levels
  • Few at 10,000' AGL
Temperature
20°C / 68°F
Dewpoint
16°C / 61°F
Humidity
78%
Altimeter
29.8" Hg
Pressure
1009.12 hPa
Previous

3 hours ago

KCQX 270052Z AUTO 24007KT 10SM CLR 21/16 A2980 RMK AO2 SLP091 T02060156
Observed
May-27 @ 00:52 UTC
Wind
  • 240° at 7 KTS
Visibility
10 SM
Flight Rules
VFR
Cloud Levels
  • Clear skies
Temperature
21°C / 70°F
Dewpoint
16°C / 61°F
Humidity
73%
Altimeter
29.8" Hg
Pressure
1009.12 hPa